sensor_id;sensor_type;location;lat;lon;timestamp;P1;durP1;ratioP1;P2;durP2;ratioP2
12451;SDS011;72521;48.924;12.204;2024-03-02T00:02:32;83.63;;;35.28;;
12451;SDS011;72521;48.924;12.204;2024-03-02T00:07:36;104.15;;;36.38;;
12451;SDS011;72521;48.924;12.204;2024-03-02T00:12:42;102.68;;;38.47;;
12451;SDS011;72521;48.924;12.204;2024-03-02T00:17:52;106.47;;;40.95;;
12451;SDS011;72521;48.924;12.204;2024-03-02T00:22:59;109.57;;;42.38;;
12451;SDS011;72521;48.924;12.204;2024-03-02T00:28:16;102.18;;;39.03;;
12451;SDS011;72521;48.924;12.204;2024-03-02T00:33:22;99.18;;;40.00;;
12451;SDS011;72521;48.924;12.204;2024-03-02T00:38:29;105.13;;;41.50;;
12451;SDS011;72521;48.924;12.204;2024-03-02T00:43:42;100.72;;;38.50;;
12451;SDS011;72521;48.924;12.204;2024-03-02T00:48:54;114.25;;;44.42;;
12451;SDS011;72521;48.924;12.204;2024-03-02T00:54:00;115.03;;;41.47;;
12451;SDS011;72521;48.924;12.204;2024-03-02T00:59:09;105.80;;;41.72;;
12451;SDS011;72521;48.924;12.204;2024-03-02T01:04:13;114.35;;;42.50;;
12451;SDS011;72521;48.924;12.204;2024-03-02T01:09:17;111.88;;;40.92;;
12451;SDS011;72521;48.924;12.204;2024-03-02T01:14:22;105.68;;;40.53;;
12451;SDS011;72521;48.924;12.204;2024-03-02T01:19:26;109.40;;;39.67;;
12451;SDS011;72521;48.924;12.204;2024-03-02T01:24:30;142.93;;;40.08;;
12451;SDS011;72521;48.924;12.204;2024-03-02T01:29:36;127.07;;;38.03;;
12451;SDS011;72521;48.924;12.204;2024-03-02T01:34:40;93.07;;;36.92;;
12451;SDS011;72521;48.924;12.204;2024-03-02T01:39:43;85.50;;;36.50;;
12451;SDS011;72521;48.924;12.204;2024-03-02T01:44:49;80.68;;;34.97;;
12451;SDS011;72521;48.924;12.204;2024-03-02T01:49:53;143.95;;;37.95;;
12451;SDS011;72521;48.924;12.204;2024-03-02T01:54:56;109.97;;;38.80;;
12451;SDS011;72521;48.924;12.204;2024-03-02T02:00:02;110.68;;;40.13;;
12451;SDS011;72521;48.924;12.204;2024-03-02T02:05:12;141.13;;;42.67;;
12451;SDS011;72521;48.924;12.204;2024-03-02T02:10:16;123.53;;;41.05;;
12451;SDS011;72521;48.924;12.204;2024-03-02T02:15:25;125.32;;;39.97;;
12451;SDS011;72521;48.924;12.204;2024-03-02T02:20:31;155.02;;;41.83;;
12451;SDS011;72521;48.924;12.204;2024-03-02T02:25:36;160.65;;;38.55;;
12451;SDS011;72521;48.924;12.204;2024-03-02T02:30:40;149.07;;;38.22;;
12451;SDS011;72521;48.924;12.204;2024-03-02T02:35:44;220.98;;;45.67;;
12451;SDS011;72521;48.924;12.204;2024-03-02T02:40:50;128.65;;;41.50;;
12451;SDS011;72521;48.924;12.204;2024-03-02T02:45:53;187.18;;;42.53;;
12451;SDS011;72521;48.924;12.204;2024-03-02T02:50:57;138.73;;;41.00;;
12451;SDS011;72521;48.924;12.204;2024-03-02T02:56:03;124.38;;;41.78;;
12451;SDS011;72521;48.924;12.204;2024-03-02T03:01:07;127.25;;;43.17;;
12451;SDS011;72521;48.924;12.204;2024-03-02T03:06:12;121.93;;;42.20;;
12451;SDS011;72521;48.924;12.204;2024-03-02T03:11:18;155.60;;;43.28;;
12451;SDS011;72521;48.924;12.204;2024-03-02T03:16:24;138.73;;;44.80;;
12451;SDS011;72521;48.924;12.204;2024-03-02T03:21:28;158.60;;;43.00;;
12451;SDS011;72521;48.924;12.204;2024-03-02T03:26:33;142.40;;;44.42;;
12451;SDS011;72521;48.924;12.204;2024-03-02T03:31:39;139.23;;;44.88;;
12451;SDS011;72521;48.924;12.204;2024-03-02T03:36:43;184.18;;;43.30;;
12451;SDS011;72521;48.924;12.204;2024-03-02T03:41:49;131.57;;;42.15;;
12451;SDS011;72521;48.924;12.204;2024-03-02T03:46:52;163.90;;;43.65;;
12451;SDS011;72521;48.924;12.204;2024-03-02T03:51:56;146.93;;;43.67;;
12451;SDS011;72521;48.924;12.204;2024-03-02T03:57:02;162.82;;;46.40;;
12451;SDS011;72521;48.924;12.204;2024-03-02T04:02:06;156.32;;;42.05;;
12451;SDS011;72521;48.924;12.204;2024-03-02T04:07:10;220.48;;;45.45;;
12451;SDS011;72521;48.924;12.204;2024-03-02T04:12:15;190.93;;;45.40;;
12451;SDS011;72521;48.924;12.204;2024-03-02T04:17:19;192.93;;;44.95;;
12451;SDS011;72521;48.924;12.204;2024-03-02T04:22:23;239.40;;;45.58;;
12451;SDS011;72521;48.924;12.204;2024-03-02T04:27:29;322.85;;;50.03;;
12451;SDS011;72521;48.924;12.204;2024-03-02T04:32:33;198.50;;;48.13;;
12451;SDS011;72521;48.924;12.204;2024-03-02T04:37:38;190.90;;;44.72;;
12451;SDS011;72521;48.924;12.204;2024-03-02T04:42:43;224.32;;;48.20;;
12451;SDS011;72521;48.924;12.204;2024-03-02T04:47:47;137.98;;;45.05;;
12451;SDS011;72521;48.924;12.204;2024-03-02T04:52:51;170.77;;;47.17;;
12451;SDS011;72521;48.924;12.204;2024-03-02T04:57:56;136.30;;;44.15;;
12451;SDS011;72521;48.924;12.204;2024-03-02T05:03:00;168.60;;;47.38;;
12451;SDS011;72521;48.924;12.204;2024-03-02T05:08:04;169.70;;;46.78;;
12451;SDS011;72521;48.924;12.204;2024-03-02T05:13:10;171.80;;;46.53;;
12451;SDS011;72521;48.924;12.204;2024-03-02T05:18:14;170.48;;;45.60;;
12451;SDS011;72521;48.924;12.204;2024-03-02T05:23:18;136.25;;;43.28;;
12451;SDS011;72521;48.924;12.204;2024-03-02T05:28:23;130.52;;;41.70;;
12451;SDS011;72521;48.924;12.204;2024-03-02T05:33:27;198.68;;;45.17;;
12451;SDS011;72521;48.924;12.204;2024-03-02T05:38:34;168.00;;;47.78;;
12451;SDS011;72521;48.924;12.204;2024-03-02T05:43:39;154.57;;;46.20;;
12451;SDS011;72521;48.924;12.204;2024-03-02T05:48:43;173.70;;;44.63;;
12451;SDS011;72521;48.924;12.204;2024-03-02T05:53:47;156.25;;;43.67;;
12451;SDS011;72521;48.924;12.204;2024-03-02T05:58:53;178.10;;;46.35;;
12451;SDS011;72521;48.924;12.204;2024-03-02T06:04:10;207.15;;;45.85;;
12451;SDS011;72521;48.924;12.204;2024-03-02T06:09:14;194.43;;;44.40;;
12451;SDS011;72521;48.924;12.204;2024-03-02T06:14:20;303.33;;;47.90;;
12451;SDS011;72521;48.924;12.204;2024-03-02T06:19:24;257.92;;;47.55;;
12451;SDS011;72521;48.924;12.204;2024-03-02T06:24:29;167.05;;;44.72;;
12451;SDS011;72521;48.924;12.204;2024-03-02T06:29:34;175.70;;;42.08;;
12451;SDS011;72521;48.924;12.204;2024-03-02T06:34:38;236.07;;;43.28;;
12451;SDS011;72521;48.924;12.204;2024-03-02T06:39:43;258.83;;;46.15;;
12451;SDS011;72521;48.924;12.204;2024-03-02T06:44:48;219.77;;;47.60;;
12451;SDS011;72521;48.924;12.204;2024-03-02T06:49:52;173.40;;;46.08;;
12451;SDS011;72521;48.924;12.204;2024-03-02T06:54:56;149.73;;;44.53;;
12451;SDS011;72521;48.924;12.204;2024-03-02T07:00:01;133.10;;;44.22;;
12451;SDS011;72521;48.924;12.204;2024-03-02T07:05:07;175.60;;;46.53;;
12451;SDS011;72521;48.924;12.204;2024-03-02T07:10:11;123.97;;;41.95;;
12451;SDS011;72521;48.924;12.204;2024-03-02T07:15:16;149.05;;;47.22;;
12451;SDS011;72521;48.924;12.204;2024-03-02T07:20:44;129.07;;;43.72;;
12451;SDS011;72521;48.924;12.204;2024-03-02T07:25:48;228.07;;;47.17;;
12451;SDS011;72521;48.924;12.204;2024-03-02T07:31:00;142.63;;;45.42;;
12451;SDS011;72521;48.924;12.204;2024-03-02T07:36:06;137.57;;;43.47;;
12451;SDS011;72521;48.924;12.204;2024-03-02T07:41:11;138.55;;;45.85;;
12451;SDS011;72521;48.924;12.204;2024-03-02T07:46:16;111.28;;;42.15;;
12451;SDS011;72521;48.924;12.204;2024-03-02T07:51:20;117.18;;;41.50;;
12451;SDS011;72521;48.924;12.204;2024-03-02T07:56:24;117.10;;;43.03;;
12451;SDS011;72521;48.924;12.204;2024-03-02T08:01:30;112.40;;;42.30;;
12451;SDS011;72521;48.924;12.204;2024-03-02T08:06:35;118.30;;;43.55;;
12451;SDS011;72521;48.924;12.204;2024-03-02T08:11:39;87.03;;;30.25;;
12451;SDS011;72521;48.924;12.204;2024-03-02T08:16:44;109.05;;;43.83;;
12451;SDS011;72521;48.924;12.204;2024-03-02T08:21:48;111.45;;;44.85;;
12451;SDS011;72521;48.924;12.204;2024-03-02T08:26:53;119.75;;;45.03;;
12451;SDS011;72521;48.924;12.204;2024-03-02T08:31:58;109.82;;;42.88;;
12451;SDS011;72521;48.924;12.204;2024-03-02T08:37:02;111.57;;;42.53;;
12451;SDS011;72521;48.924;12.204;2024-03-02T08:42:07;106.28;;;43.30;;
12451;SDS011;72521;48.924;12.204;2024-03-02T08:47:12;107.20;;;42.30;;
12451;SDS011;72521;48.924;12.204;2024-03-02T08:52:16;103.50;;;44.03;;
12451;SDS011;72521;48.924;12.204;2024-03-02T08:57:20;89.05;;;41.97;;
12451;SDS011;72521;48.924;12.204;2024-03-02T09:02:25;78.97;;;36.75;;
12451;SDS011;72521;48.924;12.204;2024-03-02T09:07:29;72.82;;;36.53;;
12451;SDS011;72521;48.924;12.204;2024-03-02T09:12:33;60.08;;;33.08;;
12451;SDS011;72521;48.924;12.204;2024-03-02T09:17:39;58.28;;;32.42;;
12451;SDS011;72521;48.924;12.204;2024-03-02T09:22:43;47.95;;;28.88;;
12451;SDS011;72521;48.924;12.204;2024-03-02T09:27:49;40.17;;;26.40;;
12451;SDS011;72521;48.924;12.204;2024-03-02T09:32:54;39.38;;;24.17;;
12451;SDS011;72521;48.924;12.204;2024-03-02T09:38:18;34.72;;;22.85;;
12451;SDS011;72521;48.924;12.204;2024-03-02T09:43:22;40.17;;;21.83;;
12451;SDS011;72521;48.924;12.204;2024-03-02T09:48:27;35.38;;;22.80;;
12451;SDS011;72521;48.924;12.204;2024-03-02T09:53:32;35.78;;;22.05;;
12451;SDS011;72521;48.924;12.204;2024-03-02T09:58:38;38.78;;;22.60;;
12451;SDS011;72521;48.924;12.204;2024-03-02T10:03:43;39.00;;;23.15;;
12451;SDS011;72521;48.924;12.204;2024-03-02T10:08:52;41.30;;;23.92;;
12451;SDS011;72521;48.924;12.204;2024-03-02T10:14:06;29.15;;;16.98;;
12451;SDS011;72521;48.924;12.204;2024-03-02T10:19:16;34.55;;;21.25;;
12451;SDS011;72521;48.924;12.204;2024-03-02T10:24:22;33.17;;;20.13;;
12451;SDS011;72521;48.924;12.204;2024-03-02T10:29:27;31.08;;;19.23;;
12451;SDS011;72521;48.924;12.204;2024-03-02T10:34:34;28.65;;;19.77;;
12451;SDS011;72521;48.924;12.204;2024-03-02T10:39:39;30.10;;;19.08;;
12451;SDS011;72521;48.924;12.204;2024-03-02T10:44:44;30.92;;;20.27;;
12451;SDS011;72521;48.924;12.204;2024-03-02T10:49:50;28.27;;;19.00;;
12451;SDS011;72521;48.924;12.204;2024-03-02T10:54:55;30.42;;;18.23;;
12451;SDS011;72521;48.924;12.204;2024-03-02T11:00:01;24.98;;;17.40;;
12451;SDS011;72521;48.924;12.204;2024-03-02T11:05:10;29.67;;;19.20;;
12451;SDS011;72521;48.924;12.204;2024-03-02T11:10:16;31.48;;;19.70;;
12451;SDS011;72521;48.924;12.204;2024-03-02T11:15:20;32.47;;;20.58;;
12451;SDS011;72521;48.924;12.204;2024-03-02T11:20:31;34.63;;;22.02;;
12451;SDS011;72521;48.924;12.204;2024-03-02T11:25:36;31.65;;;18.60;;
12451;SDS011;72521;48.924;12.204;2024-03-02T11:30:48;31.50;;;18.70;;
12451;SDS011;72521;48.924;12.204;2024-03-02T11:35:56;32.38;;;19.52;;
12451;SDS011;72521;48.924;12.204;2024-03-02T11:41:01;33.97;;;20.92;;
12451;SDS011;72521;48.924;12.204;2024-03-02T11:46:10;29.10;;;19.02;;
12451;SDS011;72521;48.924;12.204;2024-03-02T11:51:16;30.98;;;18.80;;
12451;SDS011;72521;48.924;12.204;2024-03-02T11:56:20;29.92;;;18.48;;
12451;SDS011;72521;48.924;12.204;2024-03-02T12:01:24;31.45;;;19.67;;
12451;SDS011;72521;48.924;12.204;2024-03-02T12:06:30;31.27;;;19.00;;
12451;SDS011;72521;48.924;12.204;2024-03-02T12:11:34;32.88;;;20.15;;
12451;SDS011;72521;48.924;12.204;2024-03-02T12:16:38;29.63;;;17.85;;
12451;SDS011;72521;48.924;12.204;2024-03-02T12:21:44;30.23;;;18.77;;
12451;SDS011;72521;48.924;12.204;2024-03-02T12:26:49;27.52;;;17.83;;
12451;SDS011;72521;48.924;12.204;2024-03-02T12:31:54;30.83;;;18.90;;
12451;SDS011;72521;48.924;12.204;2024-03-02T12:37:00;30.90;;;18.25;;
12451;SDS011;72521;48.924;12.204;2024-03-02T12:42:04;28.73;;;19.25;;
12451;SDS011;72521;48.924;12.204;2024-03-02T12:47:08;28.27;;;18.55;;
12451;SDS011;72521;48.924;12.204;2024-03-02T12:52:16;27.95;;;18.13;;
12451;SDS011;72521;48.924;12.204;2024-03-02T12:57:21;28.85;;;18.80;;
12451;SDS011;72521;48.924;12.204;2024-03-02T13:02:28;30.77;;;19.33;;
12451;SDS011;72521;48.924;12.204;2024-03-02T13:07:34;30.80;;;18.17;;
12451;SDS011;72521;48.924;12.204;2024-03-02T13:12:37;26.48;;;17.38;;
12451;SDS011;72521;48.924;12.204;2024-03-02T13:17:42;27.50;;;17.70;;
12451;SDS011;72521;48.924;12.204;2024-03-02T13:22:49;29.20;;;18.45;;
12451;SDS011;72521;48.924;12.204;2024-03-02T13:27:53;29.35;;;17.85;;
12451;SDS011;72521;48.924;12.204;2024-03-02T13:32:57;29.17;;;17.48;;
12451;SDS011;72521;48.924;12.204;2024-03-02T13:38:04;26.77;;;17.77;;
12451;SDS011;72521;48.924;12.204;2024-03-02T13:43:07;26.95;;;16.92;;
12451;SDS011;72521;48.924;12.204;2024-03-02T13:48:11;26.20;;;16.27;;
12451;SDS011;72521;48.924;12.204;2024-03-02T13:53:18;24.25;;;16.50;;
12451;SDS011;72521;48.924;12.204;2024-03-02T13:58:22;24.30;;;16.63;;
12451;SDS011;72521;48.924;12.204;2024-03-02T14:03:26;22.50;;;15.32;;
12451;SDS011;72521;48.924;12.204;2024-03-02T14:08:33;27.60;;;17.58;;
12451;SDS011;72521;48.924;12.204;2024-03-02T14:13:37;25.88;;;17.20;;
12451;SDS011;72521;48.924;12.204;2024-03-02T14:18:44;23.67;;;17.38;;
12451;SDS011;72521;48.924;12.204;2024-03-02T14:23:49;24.50;;;16.63;;
12451;SDS011;72521;48.924;12.204;2024-03-02T14:28:53;21.38;;;14.73;;
12451;SDS011;72521;48.924;12.204;2024-03-02T14:33:57;25.52;;;15.25;;
12451;SDS011;72521;48.924;12.204;2024-03-02T14:39:03;18.80;;;12.63;;
12451;SDS011;72521;48.924;12.204;2024-03-02T14:44:09;18.92;;;12.68;;
12451;SDS011;72521;48.924;12.204;2024-03-02T14:49:13;19.85;;;13.63;;
12451;SDS011;72521;48.924;12.204;2024-03-02T14:54:19;23.58;;;14.98;;
12451;SDS011;72521;48.924;12.204;2024-03-02T14:59:22;19.85;;;13.82;;
12451;SDS011;72521;48.924;12.204;2024-03-02T15:04:26;18.27;;;14.32;;
12451;SDS011;72521;48.924;12.204;2024-03-02T15:09:32;20.73;;;14.68;;
12451;SDS011;72521;48.924;12.204;2024-03-02T15:14:37;26.33;;;18.92;;
12451;SDS011;72521;48.924;12.204;2024-03-02T15:19:47;22.95;;;15.90;;
12451;SDS011;72521;48.924;12.204;2024-03-02T15:24:52;20.98;;;14.48;;
12451;SDS011;72521;48.924;12.204;2024-03-02T15:29:56;18.58;;;13.85;;
12451;SDS011;72521;48.924;12.204;2024-03-02T15:35:01;25.70;;;17.48;;
12451;SDS011;72521;48.924;12.204;2024-03-02T15:40:08;17.05;;;13.43;;
12451;SDS011;72521;48.924;12.204;2024-03-02T15:45:13;20.65;;;15.77;;
12451;SDS011;72521;48.924;12.204;2024-03-02T15:50:17;25.45;;;18.38;;
12451;SDS011;72521;48.924;12.204;2024-03-02T15:55:23;19.73;;;14.20;;
12451;SDS011;72521;48.924;12.204;2024-03-02T16:00:26;20.63;;;15.13;;
12451;SDS011;72521;48.924;12.204;2024-03-02T16:05:30;21.80;;;14.80;;
12451;SDS011;72521;48.924;12.204;2024-03-02T16:10:36;19.17;;;13.98;;
12451;SDS011;72521;48.924;12.204;2024-03-02T16:15:39;20.63;;;15.45;;
12451;SDS011;72521;48.924;12.204;2024-03-02T16:20:44;20.30;;;14.00;;
12451;SDS011;72521;48.924;12.204;2024-03-02T16:25:50;21.42;;;15.18;;
12451;SDS011;72521;48.924;12.204;2024-03-02T16:30:54;26.67;;;18.08;;
12451;SDS011;72521;48.924;12.204;2024-03-02T16:35:58;24.02;;;15.57;;
12451;SDS011;72521;48.924;12.204;2024-03-02T16:41:04;28.15;;;17.92;;
12451;SDS011;72521;48.924;12.204;2024-03-02T16:46:09;29.98;;;18.67;;
12451;SDS011;72521;48.924;12.204;2024-03-02T16:51:13;28.45;;;19.45;;
12451;SDS011;72521;48.924;12.204;2024-03-02T16:56:19;25.83;;;18.00;;
12451;SDS011;72521;48.924;12.204;2024-03-02T17:01:25;27.92;;;18.75;;
12451;SDS011;72521;48.924;12.204;2024-03-02T17:06:29;29.92;;;19.42;;
12451;SDS011;72521;48.924;12.204;2024-03-02T17:11:34;29.30;;;18.58;;
12451;SDS011;72521;48.924;12.204;2024-03-02T17:16:38;26.75;;;18.00;;
12451;SDS011;72521;48.924;12.204;2024-03-02T17:21:43;28.40;;;18.27;;
12451;SDS011;72521;48.924;12.204;2024-03-02T17:26:49;24.88;;;17.00;;
12451;SDS011;72521;48.924;12.204;2024-03-02T17:31:53;27.17;;;17.02;;
12451;SDS011;72521;48.924;12.204;2024-03-02T17:36:57;29.83;;;19.60;;
12451;SDS011;72521;48.924;12.204;2024-03-02T17:42:04;29.77;;;20.13;;
12451;SDS011;72521;48.924;12.204;2024-03-02T17:47:08;30.00;;;20.08;;
12451;SDS011;72521;48.924;12.204;2024-03-02T17:52:12;26.98;;;17.92;;
12451;SDS011;72521;48.924;12.204;2024-03-02T17:57:18;31.52;;;19.52;;
12451;SDS011;72521;48.924;12.204;2024-03-02T18:02:25;35.10;;;20.48;;
12451;SDS011;72521;48.924;12.204;2024-03-02T18:07:32;30.35;;;19.65;;
12451;SDS011;72521;48.924;12.204;2024-03-02T18:12:39;31.55;;;18.98;;
12451;SDS011;72521;48.924;12.204;2024-03-02T18:17:45;28.20;;;18.63;;
12451;SDS011;72521;48.924;12.204;2024-03-02T18:22:49;33.58;;;20.67;;
12451;SDS011;72521;48.924;12.204;2024-03-02T18:27:57;29.67;;;19.98;;
12451;SDS011;72521;48.924;12.204;2024-03-02T18:33:01;32.45;;;19.23;;
12451;SDS011;72521;48.924;12.204;2024-03-02T18:38:05;37.70;;;22.15;;
12451;SDS011;72521;48.924;12.204;2024-03-02T18:43:11;32.42;;;20.27;;
12451;SDS011;72521;48.924;12.204;2024-03-02T18:48:15;40.50;;;23.15;;
12451;SDS011;72521;48.924;12.204;2024-03-02T18:53:20;38.38;;;22.95;;
12451;SDS011;72521;48.924;12.204;2024-03-02T18:58:26;36.65;;;23.65;;
12451;SDS011;72521;48.924;12.204;2024-03-02T19:03:30;39.10;;;23.98;;
12451;SDS011;72521;48.924;12.204;2024-03-02T19:08:34;37.15;;;22.15;;
12451;SDS011;72521;48.924;12.204;2024-03-02T19:13:40;37.20;;;22.20;;
12451;SDS011;72521;48.924;12.204;2024-03-02T19:18:44;39.90;;;24.73;;
12451;SDS011;72521;48.924;12.204;2024-03-02T19:23:48;38.53;;;24.33;;
12451;SDS011;72521;48.924;12.204;2024-03-02T19:28:54;31.60;;;19.17;;
12451;SDS011;72521;48.924;12.204;2024-03-02T19:33:59;32.65;;;19.90;;
12451;SDS011;72521;48.924;12.204;2024-03-02T19:39:03;32.13;;;21.80;;
12451;SDS011;72521;48.924;12.204;2024-03-02T19:44:09;30.92;;;20.33;;
12451;SDS011;72521;48.924;12.204;2024-03-02T19:49:13;26.42;;;19.20;;
12451;SDS011;72521;48.924;12.204;2024-03-02T19:54:18;28.92;;;18.92;;
12451;SDS011;72521;48.924;12.204;2024-03-02T19:59:23;28.70;;;17.17;;
12451;SDS011;72521;48.924;12.204;2024-03-02T20:04:27;26.60;;;17.13;;
12451;SDS011;72521;48.924;12.204;2024-03-02T20:09:30;31.25;;;19.45;;
12451;SDS011;72521;48.924;12.204;2024-03-02T20:14:36;31.63;;;21.30;;
12451;SDS011;72521;48.924;12.204;2024-03-02T20:19:41;33.92;;;20.80;;
12451;SDS011;72521;48.924;12.204;2024-03-02T20:24:45;31.88;;;19.55;;
12451;SDS011;72521;48.924;12.204;2024-03-02T20:29:50;30.38;;;20.05;;
12451;SDS011;72521;48.924;12.204;2024-03-02T20:34:54;35.55;;;23.40;;
12451;SDS011;72521;48.924;12.204;2024-03-02T20:39:59;31.88;;;21.23;;
12451;SDS011;72521;48.924;12.204;2024-03-02T20:45:05;32.17;;;20.55;;
12451;SDS011;72521;48.924;12.204;2024-03-02T20:50:10;29.83;;;21.10;;
12451;SDS011;72521;48.924;12.204;2024-03-02T20:55:16;31.48;;;21.42;;
12451;SDS011;72521;48.924;12.204;2024-03-02T21:00:21;33.33;;;21.23;;
12451;SDS011;72521;48.924;12.204;2024-03-02T21:05:25;31.55;;;20.83;;
12451;SDS011;72521;48.924;12.204;2024-03-02T21:10:30;30.85;;;20.05;;
12451;SDS011;72521;48.924;12.204;2024-03-02T21:15:35;32.10;;;21.45;;
12451;SDS011;72521;48.924;12.204;2024-03-02T21:20:39;30.20;;;20.77;;
12451;SDS011;72521;48.924;12.204;2024-03-02T21:25:43;36.08;;;20.83;;
12451;SDS011;72521;48.924;12.204;2024-03-02T21:30:49;32.70;;;20.95;;
12451;SDS011;72521;48.924;12.204;2024-03-02T21:35:53;36.03;;;20.17;;
12451;SDS011;72521;48.924;12.204;2024-03-02T21:40:57;36.58;;;22.58;;
12451;SDS011;72521;48.924;12.204;2024-03-02T21:46:02;36.63;;;22.93;;
12451;SDS011;72521;48.924;12.204;2024-03-02T21:51:06;34.70;;;19.98;;
12451;SDS011;72521;48.924;12.204;2024-03-02T21:56:10;28.27;;;18.75;;
12451;SDS011;72521;48.924;12.204;2024-03-02T22:01:16;32.95;;;20.00;;
12451;SDS011;72521;48.924;12.204;2024-03-02T22:06:20;32.93;;;20.67;;
12451;SDS011;72521;48.924;12.204;2024-03-02T22:11:24;32.10;;;20.63;;
12451;SDS011;72521;48.924;12.204;2024-03-02T22:16:30;33.83;;;21.08;;
12451;SDS011;72521;48.924;12.204;2024-03-02T22:21:34;35.83;;;22.35;;
12451;SDS011;72521;48.924;12.204;2024-03-02T22:26:38;34.97;;;20.17;;
12451;SDS011;72521;48.924;12.204;2024-03-02T22:31:43;28.15;;;18.85;;
12451;SDS011;72521;48.924;12.204;2024-03-02T22:36:47;32.22;;;20.38;;
12451;SDS011;72521;48.924;12.204;2024-03-02T22:41:51;33.50;;;19.73;;
12451;SDS011;72521;48.924;12.204;2024-03-02T22:46:58;30.13;;;18.37;;
12451;SDS011;72521;48.924;12.204;2024-03-02T22:52:02;36.88;;;22.40;;
12451;SDS011;72521;48.924;12.204;2024-03-02T22:57:06;39.30;;;21.52;;
12451;SDS011;72521;48.924;12.204;2024-03-02T23:02:20;41.13;;;22.55;;
12451;SDS011;72521;48.924;12.204;2024-03-02T23:07:25;33.20;;;20.27;;
12451;SDS011;72521;48.924;12.204;2024-03-02T23:12:29;40.92;;;24.83;;
12451;SDS011;72521;48.924;12.204;2024-03-02T23:17:35;37.28;;;22.90;;
12451;SDS011;72521;48.924;12.204;2024-03-02T23:22:38;43.30;;;24.52;;
12451;SDS011;72521;48.924;12.204;2024-03-02T23:27:43;40.10;;;22.60;;
12451;SDS011;72521;48.924;12.204;2024-03-02T23:32:49;33.53;;;20.75;;
12451;SDS011;72521;48.924;12.204;2024-03-02T23:37:53;37.13;;;19.88;;
12451;SDS011;72521;48.924;12.204;2024-03-02T23:42:57;33.33;;;20.55;;
12451;SDS011;72521;48.924;12.204;2024-03-02T23:48:03;33.70;;;20.97;;
12451;SDS011;72521;48.924;12.204;2024-03-02T23:53:10;32.20;;;19.50;;
12451;SDS011;72521;48.924;12.204;2024-03-02T23:58:14;32.17;;;18.30;;
